Lida, Belarus
Current Conditions -  °F | °C
As of 2:50 AM on Tuesday 25 Nov 2014 (Local Time) from EYVI Reporting Station
Haze Haze  
Wind Chill: 16°   Ceiling: 600
Heat Index: 28°   Visibility: 2.5mi
Dew Point: 27°   Wind: 17mph
Humidity: 93%   Direction: 160°SSE
Pressure: 30.36"   Gusts: NA
Location:  53.89°N, 25.28°E
Report Text: EYVI 250050Z 16015KT 4000 BR OVC006 M02/M03 Q1028 R20/1///95 NOSIG
Loading
Personal Weather Stations






























Interactive Weather Map New forecast layout! Learn more

10-Day Weather Forecast

Advertisements
Track Severe Weather on mobile